createdAt,value
2023-05-14T00:01:12.130Z,10.80
2023-05-14T00:03:40.935Z,10.81
2023-05-14T00:06:09.464Z,10.76
2023-05-14T00:08:37.378Z,10.78
2023-05-14T00:11:08.952Z,10.78
2023-05-14T00:13:36.853Z,10.80
2023-05-14T00:16:05.084Z,10.78
2023-05-14T00:18:33.400Z,10.80
2023-05-14T00:21:01.306Z,10.82
2023-05-14T00:23:29.256Z,10.76
2023-05-14T00:25:57.099Z,10.81
2023-05-14T00:28:26.303Z,10.82
2023-05-14T00:30:54.218Z,10.70
2023-05-14T00:33:22.040Z,10.65
2023-05-14T00:35:49.913Z,10.73
2023-05-14T00:38:19.541Z,10.72
2023-05-14T00:40:52.158Z,10.69
2023-05-14T00:43:20.875Z,10.70
2023-05-14T00:45:51.790Z,10.74
2023-05-14T00:48:20.877Z,10.79
2023-05-14T00:50:50.545Z,10.78
2023-05-14T00:53:18.892Z,10.72
2023-05-14T00:55:49.710Z,10.78
2023-05-14T00:58:19.399Z,10.76
2023-05-14T01:00:47.411Z,10.76
2023-05-14T01:03:16.892Z,10.80
2023-05-14T01:06:01.125Z,10.81
2023-05-14T01:08:37.455Z,10.75
2023-05-14T01:11:09.094Z,10.82
2023-05-14T01:13:45.208Z,10.77
2023-05-14T01:16:15.775Z,10.73
2023-05-14T01:18:47.343Z,10.67
2023-05-14T01:21:44.924Z,10.68
2023-05-14T01:24:12.749Z,10.61
2023-05-14T01:26:40.938Z,10.55
2023-05-14T01:29:14.932Z,10.50
2023-05-14T01:31:45.307Z,10.39
2023-05-14T01:34:15.104Z,10.37
2023-05-14T01:36:45.312Z,10.41
2023-05-14T01:39:15.197Z,10.35
2023-05-14T01:41:43.967Z,10.34
2023-05-14T01:44:12.932Z,10.28
2023-05-14T01:46:40.834Z,10.34
2023-05-14T01:49:08.722Z,10.36
2023-05-14T01:51:36.723Z,10.36
2023-05-14T01:54:06.056Z,10.37
2023-05-14T01:56:33.804Z,10.35
2023-05-14T01:59:01.532Z,10.29
2023-05-14T02:01:29.757Z,10.42
2023-05-14T02:03:58.029Z,10.35
2023-05-14T02:06:26.125Z,10.43
2023-05-14T02:08:53.881Z,10.29
2023-05-14T02:11:23.003Z,10.26
2023-05-14T02:13:51.028Z,10.17
2023-05-14T02:16:19.192Z,10.17
2023-05-14T02:18:47.233Z,10.14
2023-05-14T02:21:15.132Z,10.12
2023-05-14T02:23:43.090Z,9.97
2023-05-14T02:26:10.957Z,10.01
2023-05-14T02:28:40.128Z,9.90
2023-05-14T02:31:08.119Z,9.94
2023-05-14T02:33:36.071Z,9.85
2023-05-14T02:36:03.960Z,9.91
2023-05-14T02:38:31.753Z,9.92
2023-05-14T02:40:59.566Z,9.95
2023-05-14T02:43:27.295Z,9.99
2023-05-14T02:45:56.477Z,9.89
2023-05-14T02:48:24.311Z,9.95
2023-05-14T02:50:52.522Z,10.03
2023-05-14T02:53:20.441Z,9.99
2023-05-14T02:55:48.207Z,9.94
2023-05-14T02:58:16.090Z,9.90
2023-05-14T03:00:43.908Z,9.88
2023-05-14T03:03:13.716Z,9.89
2023-05-14T03:05:41.794Z,9.86
2023-05-14T03:08:09.601Z,9.84
2023-05-14T03:10:37.309Z,9.84
2023-05-14T03:13:05.132Z,9.74
2023-05-14T03:15:32.893Z,9.72
2023-05-14T03:18:00.753Z,9.74
2023-05-14T03:20:30.030Z,9.72
2023-05-14T03:22:57.853Z,9.60
2023-05-14T03:25:25.585Z,9.55
2023-05-14T03:27:53.368Z,9.55
2023-05-14T03:30:21.426Z,9.49
2023-05-14T03:32:49.642Z,9.48
2023-05-14T03:35:17.593Z,9.50
2023-05-14T03:37:46.755Z,9.47
2023-05-14T03:40:14.537Z,9.46
2023-05-14T03:42:42.274Z,9.49
2023-05-14T03:45:11.278Z,9.43
2023-05-14T03:47:39.098Z,9.40
2023-05-14T03:50:08.512Z,9.39
2023-05-14T03:52:36.552Z,9.42
2023-05-14T03:55:06.348Z,9.45
2023-05-14T03:57:34.103Z,9.46
2023-05-14T04:00:01.814Z,9.40
2023-05-14T04:02:29.746Z,9.46
2023-05-14T04:04:57.589Z,9.42
2023-05-14T04:07:25.425Z,9.48
2023-05-14T04:09:53.541Z,9.48
2023-05-14T04:12:22.933Z,9.44
2023-05-14T04:14:50.620Z,9.44
2023-05-14T04:17:18.387Z,9.41
2023-05-14T04:19:46.123Z,9.45
2023-05-14T04:22:13.993Z,9.44
2023-05-14T04:24:42.067Z,9.54
2023-05-14T04:27:09.912Z,9.69
2023-05-14T04:29:38.931Z,9.75
2023-05-14T04:32:07.933Z,9.86
2023-05-14T04:34:35.828Z,9.94
2023-05-14T04:37:04.205Z,10.14
2023-05-14T04:39:31.962Z,10.22
2023-05-14T04:41:59.707Z,10.17
2023-05-14T04:44:27.678Z,10.24
2023-05-14T04:46:57.165Z,10.30
2023-05-14T04:49:25.083Z,10.31
2023-05-14T04:51:53.571Z,10.37
2023-05-14T04:54:21.665Z,10.39
2023-05-14T04:56:49.689Z,10.39
2023-05-14T04:59:17.590Z,10.42
2023-05-14T05:01:46.305Z,10.35
2023-05-14T05:04:15.610Z,10.38
2023-05-14T05:06:43.376Z,10.22
2023-05-14T05:09:11.238Z,10.31
2023-05-14T05:11:38.979Z,10.36
2023-05-14T05:14:06.788Z,10.12
2023-05-14T05:16:34.614Z,10.08
2023-05-14T05:19:03.313Z,10.16
2023-05-14T05:21:32.779Z,9.99
2023-05-14T05:24:00.662Z,10.01
2023-05-14T05:26:28.517Z,10.02
2023-05-14T05:28:56.353Z,10.11
2023-05-14T05:31:24.612Z,10.21
2023-05-14T05:33:52.404Z,10.25
2023-05-14T05:36:20.175Z,10.31
2023-05-14T05:38:49.385Z,10.25
2023-05-14T05:41:17.144Z,10.31
2023-05-14T05:43:44.916Z,10.29
2023-05-14T05:46:13.123Z,10.33
2023-05-14T05:48:40.925Z,10.33
2023-05-14T05:51:08.948Z,10.44
2023-05-14T05:53:36.845Z,10.48
2023-05-14T05:56:06.984Z,10.47
2023-05-14T05:58:35.006Z,10.65
2023-05-14T06:01:02.923Z,10.69
2023-05-14T06:03:30.970Z,10.81
2023-05-14T06:05:58.955Z,10.83
2023-05-14T06:08:26.883Z,10.86
2023-05-14T06:10:54.650Z,10.91
2023-05-14T06:13:23.882Z,11.05
2023-05-14T06:15:51.772Z,11.16
2023-05-14T06:18:19.769Z,11.13
2023-05-14T06:20:47.804Z,11.34
2023-05-14T06:23:15.590Z,11.40
2023-05-14T06:25:43.480Z,11.49
2023-05-14T06:28:11.379Z,11.52
2023-05-14T06:30:40.512Z,11.52
2023-05-14T06:33:08.305Z,11.71
2023-05-14T06:35:37.002Z,11.69
2023-05-14T06:38:04.772Z,11.98
2023-05-14T06:40:32.837Z,12.15
2023-05-14T06:43:00.744Z,12.25
2023-05-14T06:45:28.621Z,12.30
2023-05-14T06:47:58.080Z,12.35
2023-05-14T06:50:26.083Z,12.47
2023-05-14T06:52:53.854Z,12.70
2023-05-14T06:55:21.826Z,12.75
2023-05-14T06:57:50.613Z,12.82
2023-05-14T07:00:19.221Z,12.87
2023-05-14T07:02:47.447Z,12.81
2023-05-14T07:05:16.882Z,13.05
2023-05-14T07:07:44.660Z,13.10
2023-05-14T07:10:12.589Z,13.24
2023-05-14T07:12:40.379Z,13.33
2023-05-14T07:15:10.113Z,13.40
2023-05-14T07:17:38.020Z,13.45
2023-05-14T07:20:07.087Z,13.72
2023-05-14T07:22:36.186Z,13.68
2023-05-14T07:25:04.004Z,13.49
2023-05-14T07:27:32.119Z,14.06
2023-05-14T07:30:00.200Z,14.50
2023-05-14T07:32:28.146Z,14.54
2023-05-14T07:34:56.265Z,14.86
2023-05-14T07:37:26.045Z,15.53
2023-05-14T07:39:56.175Z,16.01
2023-05-14T07:42:35.315Z,16.23
2023-05-14T07:45:04.152Z,17.10
2023-05-14T07:47:33.190Z,18.18
2023-05-14T07:50:01.396Z,18.37
2023-05-14T07:52:29.302Z,18.90
2023-05-14T07:54:58.624Z,17.87
2023-05-14T07:57:26.680Z,17.51
2023-05-14T07:59:54.424Z,18.28
2023-05-14T08:02:22.257Z,18.04
2023-05-14T08:04:50.473Z,18.09
2023-05-14T08:07:18.500Z,18.36
2023-05-14T08:09:46.268Z,18.16
2023-05-14T08:12:16.140Z,18.43
2023-05-14T08:14:44.112Z,18.93
2023-05-14T08:17:11.928Z,18.92
2023-05-14T08:19:39.813Z,19.16
2023-05-14T08:22:07.636Z,19.20
2023-05-14T08:24:35.566Z,19.34
2023-05-14T08:27:03.498Z,18.90
2023-05-14T08:29:33.007Z,18.75
2023-05-14T08:32:08.458Z,19.13
2023-05-14T08:34:44.081Z,19.46
2023-05-14T08:37:12.364Z,19.43
2023-05-14T08:39:40.127Z,19.75
2023-05-14T08:42:08.911Z,19.15
2023-05-14T08:44:42.961Z,19.62
2023-05-14T08:47:13.050Z,19.46
2023-05-14T08:49:45.316Z,19.27
2023-05-14T08:52:14.038Z,19.46
2023-05-14T08:54:41.905Z,18.92
2023-05-14T08:57:11.464Z,19.83
2023-05-14T08:59:41.307Z,19.90
2023-05-14T09:02:11.192Z,19.78
2023-05-14T09:04:39.788Z,20.10
2023-05-14T09:07:08.608Z,20.12
2023-05-14T09:09:36.606Z,19.96
2023-05-14T09:12:05.200Z,20.06
2023-05-14T09:14:34.359Z,19.88
2023-05-14T09:17:04.327Z,20.29
2023-05-14T09:19:32.336Z,20.00
2023-05-14T09:22:00.182Z,20.18
2023-05-14T09:24:29.625Z,20.84
2023-05-14T09:26:59.273Z,20.71
2023-05-14T09:29:28.685Z,20.66
2023-05-14T09:31:57.618Z,19.79
2023-05-14T09:34:28.237Z,19.87
2023-05-14T09:36:58.261Z,19.79
2023-05-14T09:39:28.539Z,20.07
2023-05-14T09:41:56.929Z,20.03
2023-05-14T09:44:25.707Z,19.98
2023-05-14T09:46:54.634Z,18.76
2023-05-14T09:49:24.683Z,18.95
2023-05-14T09:51:54.009Z,20.06
2023-05-14T09:54:21.739Z,20.27
2023-05-14T09:56:49.631Z,20.23
2023-05-14T09:59:17.424Z,19.87
2023-05-14T10:01:46.474Z,20.23
2023-05-14T10:04:15.531Z,20.83
2023-05-14T10:06:46.395Z,20.86
2023-05-14T10:09:18.380Z,20.31
2023-05-14T10:11:53.052Z,19.61
2023-05-14T10:14:26.073Z,19.53
2023-05-14T10:16:54.978Z,19.75
2023-05-14T10:19:25.833Z,19.35
2023-05-14T10:21:57.591Z,20.15
2023-05-14T10:24:27.697Z,19.91
2023-05-14T10:26:55.909Z,18.92
2023-05-14T10:29:33.715Z,18.74
2023-05-14T10:32:06.044Z,19.43
2023-05-14T10:34:38.767Z,19.36
2023-05-14T10:37:08.959Z,19.51
2023-05-14T10:39:46.994Z,20.00
2023-05-14T10:42:19.953Z,19.19
2023-05-14T10:44:52.297Z,19.64
2023-05-14T10:47:21.123Z,19.35
2023-05-14T10:49:53.046Z,19.29
2023-05-14T10:52:22.443Z,19.53
2023-05-14T10:54:56.616Z,19.54
2023-05-14T10:57:26.368Z,19.52
2023-05-14T10:59:55.692Z,19.28
2023-05-14T11:02:26.614Z,19.21
2023-05-14T11:05:00.159Z,18.51
2023-05-14T11:07:33.363Z,18.93
2023-05-14T11:10:05.355Z,18.48
2023-05-14T11:12:33.926Z,19.23
2023-05-14T11:15:05.610Z,19.00
2023-05-14T11:17:34.152Z,19.08
2023-05-14T11:20:05.614Z,18.74
2023-05-14T11:22:34.102Z,18.33
2023-05-14T11:25:03.615Z,18.76
2023-05-14T11:27:32.411Z,18.26
2023-05-14T11:30:01.113Z,18.29
2023-05-14T11:32:29.205Z,17.94
2023-05-14T11:34:57.262Z,17.76
2023-05-14T11:37:25.144Z,18.19
2023-05-14T11:39:56.057Z,18.46
2023-05-14T11:42:26.192Z,18.78
2023-05-14T11:44:55.138Z,18.64
2023-05-14T11:47:23.697Z,18.49
2023-05-14T11:49:51.741Z,18.51
2023-05-14T11:52:22.113Z,18.04
2023-05-14T11:54:51.074Z,18.76
2023-05-14T11:57:21.098Z,18.85
2023-05-14T11:59:56.662Z,19.10
2023-05-14T12:02:24.937Z,19.19
2023-05-14T12:04:55.819Z,19.03
2023-05-14T12:07:23.836Z,19.57
2023-05-14T12:09:51.809Z,19.34
2023-05-14T12:12:21.373Z,19.63
2023-05-14T12:14:52.674Z,19.39
2023-05-14T12:17:21.653Z,19.39
2023-05-14T12:19:51.070Z,19.10
2023-05-14T12:22:20.808Z,19.14
2023-05-14T12:24:54.411Z,19.59
2023-05-14T12:27:23.778Z,19.81
2023-05-14T12:30:09.266Z,19.75
2023-05-14T12:32:49.006Z,19.96
2023-05-14T12:35:17.265Z,19.29
2023-05-14T12:37:45.378Z,19.42
2023-05-14T12:40:13.708Z,19.79
2023-05-14T12:42:41.654Z,19.73
2023-05-14T12:45:12.161Z,19.61
2023-05-14T12:47:40.401Z,19.91
2023-05-14T12:50:09.232Z,20.42
2023-05-14T12:52:39.648Z,20.04
2023-05-14T12:55:09.079Z,20.47
2023-05-14T12:57:38.482Z,20.49
2023-05-14T13:00:08.230Z,20.98
2023-05-14T13:02:43.130Z,20.66
2023-05-14T13:05:11.717Z,20.92
2023-05-14T13:07:39.720Z,21.41
2023-05-14T13:10:08.516Z,21.49
2023-05-14T13:12:36.367Z,21.88
2023-05-14T13:15:04.277Z,20.87
2023-05-14T13:17:32.115Z,22.10
2023-05-14T13:20:01.404Z,22.35
2023-05-14T13:22:29.301Z,22.71
2023-05-14T13:24:57.174Z,22.18
2023-05-14T13:27:25.109Z,22.18
2023-05-14T13:29:53.139Z,21.14
2023-05-14T13:32:20.964Z,20.79
2023-05-14T13:34:48.915Z,22.19
2023-05-14T13:37:18.078Z,22.36
2023-05-14T13:39:46.017Z,21.69
2023-05-14T13:42:13.982Z,21.75
2023-05-14T13:44:41.866Z,22.33
2023-05-14T13:47:09.668Z,22.46
2023-05-14T13:49:37.640Z,23.02
2023-05-14T13:52:06.310Z,22.84
2023-05-14T13:54:35.395Z,21.34
2023-05-14T13:57:03.258Z,21.42
2023-05-14T13:59:31.057Z,21.88
2023-05-14T14:01:58.957Z,22.05
2023-05-14T14:04:29.027Z,22.19
2023-05-14T14:06:56.917Z,22.11
2023-05-14T14:09:25.496Z,22.02
2023-05-14T14:11:54.935Z,22.38
2023-05-14T14:14:23.082Z,21.09
2023-05-14T14:16:50.856Z,21.72
2023-05-14T14:19:18.747Z,20.87
2023-05-14T14:21:46.846Z,21.64
2023-05-14T14:24:14.669Z,22.31
2023-05-14T14:26:42.526Z,22.42
2023-05-14T14:29:11.652Z,22.52
2023-05-14T14:31:39.436Z,22.48
2023-05-14T14:34:07.336Z,22.63
2023-05-14T14:36:35.237Z,23.35
2023-05-14T14:39:03.094Z,23.10
2023-05-14T14:41:31.113Z,22.72
2023-05-14T14:43:58.988Z,22.78
2023-05-14T14:46:28.301Z,22.74
2023-05-14T14:48:56.105Z,21.85
2023-05-14T14:51:23.963Z,22.17
2023-05-14T14:53:51.772Z,21.84
2023-05-14T14:56:19.471Z,20.19
2023-05-14T14:58:47.180Z,19.99
2023-05-14T15:01:15.383Z,20.23
2023-05-14T15:03:45.680Z,20.87
2023-05-14T15:06:13.701Z,21.26
2023-05-14T15:08:41.607Z,21.02
2023-05-14T15:11:09.615Z,21.13
2023-05-14T15:13:37.444Z,21.62
2023-05-14T15:16:05.417Z,21.76
2023-05-14T15:18:33.441Z,21.98
2023-05-14T15:21:02.627Z,21.56
2023-05-14T15:23:30.504Z,21.44
2023-05-14T15:25:58.340Z,21.76
2023-05-14T15:28:26.046Z,21.03
2023-05-14T15:30:55.049Z,21.97
2023-05-14T15:33:23.610Z,22.02
2023-05-14T15:35:51.384Z,22.04
2023-05-14T15:38:20.741Z,21.67
2023-05-14T15:40:48.678Z,22.24
2023-05-14T15:43:16.416Z,21.50
2023-05-14T15:45:45.851Z,21.48
2023-05-14T15:48:14.044Z,21.18
2023-05-14T15:50:41.988Z,21.01
2023-05-14T15:53:10.067Z,21.77
2023-05-14T15:55:39.268Z,21.84
2023-05-14T15:58:07.281Z,21.80
2023-05-14T16:00:35.109Z,21.28
2023-05-14T16:03:03.055Z,21.61
2023-05-14T16:05:31.049Z,21.97
2023-05-14T16:07:59.469Z,22.07
2023-05-14T16:10:27.394Z,21.48
2023-05-14T16:12:56.939Z,21.79
2023-05-14T16:15:24.805Z,21.58
2023-05-14T16:17:53.205Z,21.86
2023-05-14T16:20:21.073Z,21.55
2023-05-14T16:22:48.861Z,21.43
2023-05-14T16:25:18.578Z,21.69
2023-05-14T16:27:46.645Z,21.53
2023-05-14T16:30:16.324Z,21.65
2023-05-14T16:32:46.682Z,20.40
2023-05-14T16:35:14.652Z,20.80
2023-05-14T16:37:42.507Z,20.57
2023-05-14T16:40:12.144Z,20.87
2023-05-14T16:42:40.391Z,20.61
2023-05-14T16:45:09.539Z,20.41
2023-05-14T16:47:38.670Z,21.06
2023-05-14T16:50:08.204Z,20.76
2023-05-14T16:52:36.054Z,20.92
2023-05-14T16:55:03.956Z,20.28
2023-05-14T16:57:32.100Z,21.16
2023-05-14T16:59:59.983Z,20.83
2023-05-14T17:02:27.858Z,21.06
2023-05-14T17:04:57.207Z,20.95
2023-05-14T17:07:25.142Z,20.63
2023-05-14T17:09:53.021Z,20.15
2023-05-14T17:12:20.986Z,20.39
2023-05-14T17:14:48.945Z,20.38
2023-05-14T17:17:16.920Z,20.47
2023-05-14T17:19:45.844Z,20.10
2023-05-14T17:22:15.222Z,20.44
2023-05-14T17:24:43.346Z,20.56
2023-05-14T17:27:11.181Z,20.53
2023-05-14T17:29:38.941Z,20.28
2023-05-14T17:32:07.245Z,19.80
2023-05-14T17:34:35.122Z,19.79
2023-05-14T17:37:02.928Z,19.66
2023-05-14T17:39:32.152Z,19.75
2023-05-14T17:42:00.044Z,19.91
2023-05-14T17:44:27.947Z,19.64
2023-05-14T17:46:55.996Z,19.27
2023-05-14T17:49:23.800Z,19.31
2023-05-14T17:51:51.806Z,19.52
2023-05-14T17:54:19.602Z,19.48
2023-05-14T17:56:50.893Z,19.11
2023-05-14T17:59:19.052Z,19.33
2023-05-14T18:01:46.772Z,19.28
2023-05-14T18:04:15.111Z,19.17
2023-05-14T18:06:44.153Z,19.22
2023-05-14T18:09:11.939Z,19.06
2023-05-14T18:11:39.983Z,18.97
2023-05-14T18:14:09.231Z,18.63
2023-05-14T18:16:38.096Z,18.63
2023-05-14T18:19:06.213Z,18.44
2023-05-14T18:21:34.013Z,18.45
2023-05-14T18:24:02.006Z,18.34
2023-05-14T18:26:32.205Z,18.10
2023-05-14T18:29:01.598Z,17.81
2023-05-14T18:31:31.231Z,17.51
2023-05-14T18:33:59.088Z,17.33
2023-05-14T18:36:26.909Z,17.17
2023-05-14T18:38:56.721Z,17.24
2023-05-14T18:41:24.530Z,17.23
2023-05-14T18:43:52.252Z,17.10
2023-05-14T18:46:20.338Z,17.02
2023-05-14T18:48:50.026Z,16.45
2023-05-14T18:51:18.088Z,16.93
2023-05-14T18:53:45.975Z,16.83
2023-05-14T18:56:13.725Z,16.81
2023-05-14T18:58:41.613Z,16.66
2023-05-14T19:01:09.515Z,16.54
2023-05-14T19:03:37.810Z,16.44
2023-05-14T19:06:19.174Z,16.29
2023-05-14T19:08:52.269Z,16.11
2023-05-14T19:11:31.971Z,15.98
2023-05-14T19:14:11.082Z,16.33
2023-05-14T19:16:39.077Z,16.32
2023-05-14T19:19:07.114Z,16.28
2023-05-14T19:21:36.900Z,16.35
2023-05-14T19:24:05.577Z,16.29
2023-05-14T19:26:33.618Z,16.35
2023-05-14T19:29:02.025Z,16.15
2023-05-14T19:31:30.006Z,16.38
2023-05-14T19:33:57.956Z,16.41
2023-05-14T19:36:26.459Z,16.27
2023-05-14T19:39:00.741Z,16.18
2023-05-14T19:41:28.850Z,15.97
2023-05-14T19:43:56.608Z,15.85
2023-05-14T19:46:53.489Z,15.78
2023-05-14T19:49:38.551Z,15.83
2023-05-14T19:52:30.383Z,15.69
2023-05-14T19:55:11.552Z,15.27
2023-05-14T19:57:53.807Z,15.39
2023-05-14T20:00:32.614Z,15.48
2023-05-14T20:03:07.495Z,15.50
2023-05-14T20:05:38.736Z,15.26
2023-05-14T20:08:08.152Z,15.16
2023-05-14T20:10:45.963Z,15.15
2023-05-14T20:13:42.058Z,15.22
2023-05-14T20:16:13.595Z,15.27
2023-05-14T20:18:41.392Z,15.02
2023-05-14T20:21:09.706Z,15.08
2023-05-14T20:23:37.712Z,15.20
2023-05-14T20:26:06.800Z,15.20
2023-05-14T20:28:34.618Z,15.05
2023-05-14T20:31:04.036Z,15.06
2023-05-14T20:33:31.903Z,15.43
2023-05-14T20:36:00.307Z,15.26
2023-05-14T20:38:29.338Z,15.08
2023-05-14T20:40:57.146Z,15.18
2023-05-14T20:43:28.274Z,15.26
2023-05-14T20:45:58.659Z,15.40
2023-05-14T20:48:28.310Z,14.93
2023-05-14T20:50:56.150Z,14.68
2023-05-14T20:53:25.336Z,14.57
2023-05-14T20:55:53.353Z,14.48
2023-05-14T20:58:21.286Z,14.18
2023-05-14T21:00:50.443Z,14.01
2023-05-14T21:03:18.245Z,14.07
2023-05-14T21:05:46.083Z,14.02
2023-05-14T21:08:13.850Z,13.95
2023-05-14T21:10:41.512Z,13.99
2023-05-14T21:13:09.389Z,13.90
2023-05-14T21:15:37.145Z,13.66
2023-05-14T21:18:06.510Z,13.69
2023-05-14T21:20:36.538Z,13.64
2023-05-14T21:23:04.233Z,13.68
2023-05-14T21:25:32.010Z,13.57
2023-05-14T21:27:59.694Z,13.45
2023-05-14T21:30:27.820Z,13.30
2023-05-14T21:32:55.740Z,13.14
2023-05-14T21:35:25.290Z,13.09
2023-05-14T21:37:53.249Z,13.06
2023-05-14T21:40:20.966Z,12.88
2023-05-14T21:42:48.775Z,12.97
2023-05-14T21:45:16.701Z,12.79
2023-05-14T21:47:44.528Z,12.68
2023-05-14T21:50:13.020Z,12.55
2023-05-14T21:52:42.343Z,12.59
2023-05-14T21:55:10.681Z,12.63
2023-05-14T21:57:38.454Z,12.57
2023-05-14T22:00:11.358Z,12.68
2023-05-14T22:02:39.285Z,12.61
2023-05-14T22:05:07.365Z,12.38
2023-05-14T22:07:35.070Z,12.33
2023-05-14T22:10:04.542Z,12.11
2023-05-14T22:12:32.362Z,12.14
2023-05-14T22:15:00.169Z,12.23
2023-05-14T22:17:28.171Z,11.95
2023-05-14T22:19:55.973Z,12.06
2023-05-14T22:22:23.724Z,11.97
2023-05-14T22:24:51.494Z,12.07
2023-05-14T22:27:20.896Z,12.04
2023-05-14T22:29:48.733Z,12.10
2023-05-14T22:32:16.462Z,12.06
2023-05-14T22:34:44.243Z,11.98
2023-05-14T22:37:11.938Z,12.06
2023-05-14T22:39:39.647Z,11.97
2023-05-14T22:42:07.485Z,12.03
2023-05-14T22:44:37.036Z,11.93
2023-05-14T22:47:06.031Z,12.00
2023-05-14T22:49:33.876Z,11.86
2023-05-14T22:52:01.552Z,11.65
2023-05-14T22:54:29.321Z,11.54
2023-05-14T22:56:57.062Z,11.61
2023-05-14T22:59:24.858Z,11.50
2023-05-14T23:01:54.156Z,11.49
2023-05-14T23:04:21.972Z,11.44
2023-05-14T23:06:49.692Z,11.47
2023-05-14T23:09:17.532Z,11.27
2023-05-14T23:11:46.090Z,11.32
2023-05-14T23:14:13.949Z,11.27
2023-05-14T23:16:41.988Z,11.31
2023-05-14T23:19:11.495Z,11.23
2023-05-14T23:21:39.390Z,11.22
2023-05-14T23:24:07.995Z,11.16
2023-05-14T23:26:35.765Z,11.20
2023-05-14T23:29:03.618Z,11.17
2023-05-14T23:31:31.454Z,11.13
2023-05-14T23:33:59.483Z,11.00
2023-05-14T23:36:31.293Z,11.03
2023-05-14T23:38:59.194Z,10.93
2023-05-14T23:41:27.072Z,10.89
2023-05-14T23:43:55.430Z,10.83
2023-05-14T23:46:23.493Z,10.83
2023-05-14T23:48:52.054Z,10.80
2023-05-14T23:51:19.763Z,10.80
2023-05-14T23:53:48.928Z,10.75
2023-05-14T23:56:16.910Z,10.73
2023-05-14T23:58:44.720Z,10.78
